createdAt,value
2022-12-14T00:00:21.474Z,64.33
2022-12-14T00:01:26.043Z,64.47
2022-12-14T00:02:27.529Z,64.84
2022-12-14T00:03:29.070Z,64.28
2022-12-14T00:04:31.015Z,64.17
2022-12-14T00:05:32.475Z,64.07
2022-12-14T00:06:35.075Z,64.05
2022-12-14T00:07:36.550Z,64.30
2022-12-14T00:08:41.685Z,63.95
2022-12-14T00:09:43.922Z,63.83
2022-12-14T00:10:45.538Z,63.62
2022-12-14T00:11:47.009Z,64.00
2022-12-14T00:12:48.459Z,64.25
2022-12-14T00:13:55.430Z,64.20
2022-12-14T00:14:57.476Z,64.06
2022-12-14T00:15:59.035Z,63.84
2022-12-14T00:17:00.537Z,63.76
2022-12-14T00:18:02.063Z,63.83
2022-12-14T00:19:05.516Z,64.27
2022-12-14T00:20:08.470Z,64.40
2022-12-14T00:21:12.159Z,64.53
2022-12-14T00:22:13.595Z,64.18
2022-12-14T00:23:15.024Z,63.96
2022-12-14T00:24:16.772Z,63.73
2022-12-14T00:25:18.237Z,63.61
2022-12-14T00:26:25.002Z,63.69
2022-12-14T00:27:26.754Z,64.29
2022-12-14T00:28:28.741Z,64.52
2022-12-14T00:29:30.765Z,64.79
2022-12-14T00:30:32.199Z,64.21
2022-12-14T00:31:33.697Z,65.02
2022-12-14T00:32:35.154Z,64.94
2022-12-14T00:33:37.638Z,64.28
2022-12-14T00:34:39.381Z,64.41
2022-12-14T00:35:40.797Z,64.02
2022-12-14T00:36:42.219Z,63.42
2022-12-14T00:37:44.691Z,64.00
2022-12-14T00:38:50.524Z,63.96
2022-12-14T00:39:52.283Z,63.71
2022-12-14T00:40:55.039Z,63.76
2022-12-14T00:41:56.504Z,63.73
2022-12-14T00:42:57.912Z,63.39
2022-12-14T00:43:59.438Z,63.81
2022-12-14T00:45:02.179Z,63.28
2022-12-14T00:46:03.817Z,63.64
2022-12-14T00:47:05.297Z,63.64
2022-12-14T00:48:06.704Z,63.04
2022-12-14T00:49:08.172Z,63.48
2022-12-14T00:50:09.751Z,63.57
2022-12-14T00:51:11.245Z,63.54
2022-12-14T00:52:12.728Z,63.88
2022-12-14T00:53:14.311Z,63.02
2022-12-14T00:54:16.312Z,63.05
2022-12-14T00:55:17.827Z,63.36
2022-12-14T00:56:19.353Z,63.30
2022-12-14T00:57:20.782Z,63.06
2022-12-14T00:58:24.797Z,63.12
2022-12-14T00:59:27.435Z,62.91
2022-12-14T01:00:28.955Z,63.33
2022-12-14T01:01:30.568Z,63.29
2022-12-14T01:02:32.230Z,63.08
2022-12-14T01:03:34.644Z,63.60
2022-12-14T01:04:36.835Z,63.66
2022-12-14T01:05:39.225Z,64.19
2022-12-14T01:06:40.697Z,64.22
2022-12-14T01:07:42.112Z,63.70
2022-12-14T01:08:44.007Z,63.68
2022-12-14T01:09:45.465Z,63.53
2022-12-14T01:10:47.025Z,63.59
2022-12-14T01:11:48.515Z,63.34
2022-12-14T01:12:50.080Z,63.31
2022-12-14T01:13:51.814Z,63.90
2022-12-14T01:14:53.256Z,63.43
2022-12-14T01:15:54.713Z,63.44
2022-12-14T01:16:56.174Z,63.80
2022-12-14T01:17:57.585Z,63.82
2022-12-14T01:19:00.709Z,63.73
2022-12-14T01:20:02.189Z,63.63
2022-12-14T01:21:24.341Z,63.45
2022-12-14T01:22:25.788Z,63.42
2022-12-14T01:23:27.591Z,63.31
2022-12-14T01:24:29.680Z,63.35
2022-12-14T01:25:31.084Z,63.51
2022-12-14T01:26:36.873Z,63.85
2022-12-14T01:27:38.306Z,63.50
2022-12-14T01:28:40.842Z,63.76
2022-12-14T01:29:42.301Z,63.51
2022-12-14T01:30:43.709Z,63.07
2022-12-14T01:31:48.612Z,62.91
2022-12-14T01:32:50.357Z,62.67
2022-12-14T01:33:52.205Z,62.49
2022-12-14T01:34:53.632Z,62.58
2022-12-14T01:35:55.017Z,62.87
2022-12-14T01:36:56.596Z,62.66
2022-12-14T01:37:58.068Z,62.91
2022-12-14T01:39:03.519Z,62.64
2022-12-14T01:40:05.512Z,62.86
2022-12-14T01:41:08.389Z,62.25
2022-12-14T01:42:15.000Z,63.29
2022-12-14T01:43:16.400Z,63.63
2022-12-14T01:44:18.095Z,63.93
2022-12-14T01:45:22.235Z,63.57
2022-12-14T01:46:34.390Z,63.73
2022-12-14T01:47:35.804Z,63.43
2022-12-14T01:48:37.288Z,63.39
2022-12-14T01:49:47.480Z,63.39
2022-12-14T01:50:49.088Z,63.09
2022-12-14T01:52:15.160Z,62.81
2022-12-14T01:53:23.376Z,62.50
2022-12-14T01:54:28.772Z,61.81
2022-12-14T01:55:48.679Z,61.87
2022-12-14T01:56:50.756Z,61.40
2022-12-14T01:57:59.023Z,61.03
2022-12-14T01:59:06.299Z,61.21
2022-12-14T02:00:09.918Z,61.73
2022-12-14T02:01:11.696Z,61.72
2022-12-14T02:02:15.661Z,61.83
2022-12-14T02:03:31.435Z,62.25
2022-12-14T02:04:37.524Z,62.79
2022-12-14T02:05:43.411Z,63.60
2022-12-14T02:06:48.991Z,63.67
2022-12-14T02:07:52.922Z,63.29
2022-12-14T02:08:56.925Z,63.12
2022-12-14T02:10:02.822Z,62.81
2022-12-14T02:11:04.387Z,63.29
2022-12-14T02:12:14.560Z,63.46
2022-12-14T02:13:34.509Z,63.93
2022-12-14T02:14:36.545Z,63.85
2022-12-14T02:15:39.386Z,63.75
2022-12-14T02:16:41.374Z,62.90
2022-12-14T02:17:44.895Z,63.17
2022-12-14T02:18:46.658Z,62.50
2022-12-14T02:19:49.423Z,62.35
2022-12-14T02:21:12.802Z,62.17
2022-12-14T02:22:32.589Z,62.52
2022-12-14T02:23:55.621Z,62.77
2022-12-14T02:25:32.353Z,62.96
2022-12-14T02:26:58.001Z,62.81
2022-12-14T02:28:05.848Z,62.63
2022-12-14T02:29:38.587Z,62.65
2022-12-14T02:30:41.974Z,62.32
2022-12-14T02:32:01.651Z,62.22
2022-12-14T02:33:21.131Z,62.71
2022-12-14T02:34:51.951Z,62.66
2022-12-14T02:36:05.886Z,62.86
2022-12-14T02:37:17.368Z,62.31
2022-12-14T02:38:46.819Z,62.47
2022-12-14T02:40:01.267Z,62.22
2022-12-14T02:41:11.443Z,61.90
2022-12-14T02:42:16.286Z,61.47
2022-12-14T02:43:24.487Z,61.67
2022-12-14T02:44:40.681Z,61.47
2022-12-14T02:45:49.155Z,62.15
2022-12-14T02:47:04.517Z,62.23
2022-12-14T02:48:17.291Z,62.39
2022-12-14T02:49:41.738Z,62.47
2022-12-14T02:51:00.877Z,62.22
2022-12-14T02:52:12.563Z,62.31
2022-12-14T02:53:35.795Z,62.61
2022-12-14T02:54:45.601Z,62.79
2022-12-14T02:55:51.206Z,62.08
2022-12-14T02:56:59.293Z,62.46
2022-12-14T02:58:08.916Z,63.21
2022-12-14T02:59:10.854Z,62.73
2022-12-14T03:00:13.369Z,62.30
2022-12-14T03:01:19.488Z,62.13
2022-12-14T03:02:21.162Z,62.69
2022-12-14T03:03:22.735Z,62.59
2022-12-14T03:04:24.273Z,62.72
2022-12-14T03:05:26.166Z,62.74
2022-12-14T03:06:27.706Z,62.56
2022-12-14T03:07:45.893Z,62.59
2022-12-14T03:08:50.373Z,62.31
2022-12-14T03:09:52.596Z,62.26
2022-12-14T03:11:04.067Z,62.02
2022-12-14T03:12:10.640Z,61.81
2022-12-14T03:13:20.969Z,62.24
2022-12-14T03:14:29.333Z,61.76
2022-12-14T03:15:34.035Z,61.92
2022-12-14T03:16:47.967Z,62.49
2022-12-14T03:17:52.942Z,61.67
2022-12-14T03:19:02.857Z,61.95
2022-12-14T03:20:18.153Z,61.90
2022-12-14T03:21:26.791Z,61.51
2022-12-14T03:22:40.187Z,60.84
2022-12-14T03:23:48.649Z,60.99
2022-12-14T03:24:55.094Z,61.21
2022-12-14T03:26:12.162Z,61.47
2022-12-14T03:27:33.115Z,61.33
2022-12-14T03:28:43.001Z,61.39
2022-12-14T03:29:56.444Z,61.41
2022-12-14T03:31:05.860Z,61.72
2022-12-14T03:32:13.876Z,61.83
2022-12-14T03:33:20.450Z,61.69
2022-12-14T03:34:28.281Z,62.20
2022-12-14T03:35:34.845Z,62.20
2022-12-14T03:37:08.762Z,62.35
2022-12-14T03:38:32.354Z,62.21
2022-12-14T03:39:36.416Z,62.60
2022-12-14T03:41:12.564Z,62.66
2022-12-14T03:42:28.727Z,62.45
2022-12-14T03:43:49.815Z,62.27
2022-12-14T03:45:09.825Z,62.19
2022-12-14T03:46:18.808Z,62.70
2022-12-14T03:47:38.273Z,62.39
2022-12-14T03:48:54.665Z,62.59
2022-12-14T03:50:20.709Z,62.78
2022-12-14T03:51:35.388Z,63.12
2022-12-14T03:52:47.676Z,63.20
2022-12-14T03:54:34.426Z,63.43
2022-12-14T03:55:41.149Z,63.40
2022-12-14T03:56:53.228Z,61.92
2022-12-14T03:58:35.754Z,61.92
2022-12-14T03:59:49.028Z,61.74
2022-12-14T04:01:24.596Z,62.03
2022-12-14T04:02:28.829Z,62.24
2022-12-14T04:04:12.709Z,61.50
2022-12-14T04:05:16.797Z,62.16
2022-12-14T04:06:41.359Z,62.20
2022-12-14T04:08:03.462Z,62.50
2022-12-14T04:09:13.783Z,62.41
2022-12-14T04:10:39.028Z,62.30
2022-12-14T04:12:06.934Z,61.86
2022-12-14T04:13:36.782Z,62.00
2022-12-14T04:15:15.755Z,61.94
2022-12-14T04:16:41.253Z,61.78
2022-12-14T04:18:04.040Z,62.05
2022-12-14T04:19:11.929Z,61.61
2022-12-14T04:20:20.239Z,61.88
2022-12-14T04:21:29.207Z,62.40
2022-12-14T04:22:38.097Z,61.19
2022-12-14T04:24:04.699Z,61.44
2022-12-14T04:25:35.932Z,61.27
2022-12-14T04:26:45.757Z,61.07
2022-12-14T04:27:59.740Z,61.31
2022-12-14T04:29:25.291Z,61.13
2022-12-14T04:30:32.873Z,61.29
2022-12-14T04:31:38.954Z,60.69
2022-12-14T04:32:42.983Z,61.26
2022-12-14T04:33:51.418Z,61.70
2022-12-14T04:35:34.648Z,62.07
2022-12-14T04:36:46.667Z,62.08
2022-12-14T04:38:09.458Z,62.58
2022-12-14T04:39:19.897Z,62.63
2022-12-14T04:40:31.783Z,62.62
2022-12-14T04:41:40.947Z,62.31
2022-12-14T04:42:50.174Z,62.53
2022-12-14T04:43:55.968Z,62.83
2022-12-14T04:45:05.025Z,62.23
2022-12-14T04:46:11.992Z,62.28
2022-12-14T04:47:17.638Z,61.23
2022-12-14T04:48:31.791Z,61.37
2022-12-14T04:49:42.555Z,61.30
2022-12-14T04:50:54.458Z,61.23
2022-12-14T04:52:00.580Z,61.35
2022-12-14T04:53:13.805Z,61.49
2022-12-14T04:54:22.417Z,61.27
2022-12-14T04:55:33.252Z,61.69
2022-12-14T04:56:44.146Z,61.43
2022-12-14T04:57:48.344Z,60.74
2022-12-14T04:58:50.110Z,61.11
2022-12-14T04:59:52.031Z,60.61
2022-12-14T05:01:05.852Z,60.69
2022-12-14T05:02:21.485Z,60.94
2022-12-14T05:03:31.411Z,61.26
2022-12-14T05:05:00.630Z,60.87
2022-12-14T05:06:21.075Z,61.00
2022-12-14T05:07:39.651Z,61.02
2022-12-14T05:09:09.518Z,61.12
2022-12-14T05:10:23.889Z,61.26
2022-12-14T05:13:05.154Z,61.13
2022-12-14T05:14:11.416Z,60.96
2022-12-14T05:15:21.226Z,61.19
2022-12-14T05:16:25.059Z,61.46
2022-12-14T05:17:27.915Z,61.43
2022-12-14T05:18:29.407Z,61.34
2022-12-14T05:19:30.979Z,61.33
2022-12-14T05:20:33.041Z,61.46
2022-12-14T05:21:49.721Z,61.74
2022-12-14T05:22:51.329Z,61.59
2022-12-14T05:23:52.770Z,61.61
2022-12-14T05:24:54.214Z,61.62
2022-12-14T05:25:55.697Z,61.84
2022-12-14T05:26:57.111Z,61.77
2022-12-14T05:27:58.601Z,61.78
2022-12-14T05:29:00.007Z,61.91
2022-12-14T05:30:01.445Z,61.36
2022-12-14T05:31:03.243Z,61.70
2022-12-14T05:32:04.875Z,61.53
2022-12-14T05:33:06.301Z,61.42
2022-12-14T05:34:07.773Z,61.35
2022-12-14T05:35:11.750Z,60.66
2022-12-14T05:36:13.485Z,60.96
2022-12-14T05:37:18.364Z,61.09
2022-12-14T05:38:20.067Z,61.56
2022-12-14T05:39:21.654Z,60.86
2022-12-14T05:40:23.108Z,61.60
2022-12-14T05:41:24.912Z,61.31
2022-12-14T05:42:26.405Z,61.81
2022-12-14T05:43:28.202Z,61.59
2022-12-14T05:44:29.829Z,61.63
2022-12-14T05:45:31.763Z,61.72
2022-12-14T05:46:33.261Z,61.65
2022-12-14T05:47:34.677Z,61.78
2022-12-14T05:48:36.128Z,61.30
2022-12-14T05:49:37.567Z,61.89
2022-12-14T05:50:39.332Z,62.07
2022-12-14T05:51:40.956Z,62.41
2022-12-14T05:52:42.375Z,62.25
2022-12-14T05:53:43.961Z,61.95
2022-12-14T05:54:45.995Z,61.62
2022-12-14T05:55:49.180Z,61.87
2022-12-14T05:56:50.716Z,61.20
2022-12-14T05:57:52.137Z,60.43
2022-12-14T05:58:54.392Z,60.38
2022-12-14T05:59:55.813Z,61.33
2022-12-14T06:01:19.456Z,61.41
2022-12-14T06:02:21.409Z,61.90
2022-12-14T06:03:22.861Z,62.11
2022-12-14T06:04:24.707Z,61.66
2022-12-14T06:05:26.139Z,61.49
2022-12-14T06:06:28.047Z,61.26
2022-12-14T06:07:29.482Z,61.08
2022-12-14T06:08:33.046Z,61.37
2022-12-14T06:09:34.462Z,61.03
2022-12-14T06:10:35.898Z,61.21
2022-12-14T06:11:40.735Z,61.50
2022-12-14T06:12:42.106Z,61.53
2022-12-14T06:13:43.862Z,61.28
2022-12-14T06:14:45.281Z,61.63
2022-12-14T06:15:46.746Z,62.18
2022-12-14T06:16:48.214Z,61.32
2022-12-14T06:17:50.332Z,61.46
2022-12-14T06:18:57.107Z,61.83
2022-12-14T06:19:58.619Z,61.91
2022-12-14T06:21:01.262Z,61.12
2022-12-14T06:22:03.306Z,61.27
2022-12-14T06:23:04.762Z,61.23
2022-12-14T06:24:07.232Z,61.49
2022-12-14T06:25:09.488Z,61.37
2022-12-14T06:26:12.237Z,60.74
2022-12-14T06:27:13.636Z,61.00
2022-12-14T06:28:15.030Z,60.89
2022-12-14T06:29:18.974Z,60.14
2022-12-14T06:30:20.497Z,60.22
2022-12-14T06:31:24.960Z,60.40
2022-12-14T06:32:26.525Z,60.93
2022-12-14T06:33:29.238Z,60.84
2022-12-14T06:34:35.272Z,60.60
2022-12-14T06:35:46.485Z,61.15
2022-12-14T06:36:48.349Z,60.84
2022-12-14T06:37:49.802Z,61.31
2022-12-14T06:38:52.190Z,61.34
2022-12-14T06:39:54.637Z,61.37
2022-12-14T06:40:56.180Z,61.32
2022-12-14T06:41:57.948Z,61.47
2022-12-14T06:42:59.356Z,61.19
2022-12-14T06:44:07.515Z,61.17
2022-12-14T06:45:09.327Z,60.88
2022-12-14T06:46:15.849Z,61.50
2022-12-14T06:47:18.249Z,61.70
2022-12-14T06:48:19.651Z,61.65
2022-12-14T06:49:21.979Z,61.70
2022-12-14T06:50:23.393Z,61.81
2022-12-14T06:51:26.078Z,61.75
2022-12-14T06:52:27.733Z,61.75
2022-12-14T06:53:31.144Z,62.33
2022-12-14T06:54:32.732Z,62.43
2022-12-14T06:55:34.205Z,62.23
2022-12-14T06:56:36.811Z,62.65
2022-12-14T06:57:38.548Z,62.31
2022-12-14T06:58:40.313Z,62.62
2022-12-14T06:59:41.746Z,62.04
2022-12-14T07:00:44.401Z,61.24
2022-12-14T07:01:49.582Z,61.54
2022-12-14T07:02:51.800Z,61.46
2022-12-14T07:03:56.272Z,61.47
2022-12-14T07:04:57.686Z,61.55
2022-12-14T07:06:00.388Z,61.13
2022-12-14T07:07:02.170Z,61.50
2022-12-14T07:08:04.067Z,61.63
2022-12-14T07:09:07.565Z,61.54
2022-12-14T07:10:10.273Z,61.37
2022-12-14T07:11:13.274Z,61.20
2022-12-14T07:12:15.464Z,61.29
2022-12-14T07:13:16.908Z,61.27
2022-12-14T07:14:18.382Z,61.17
2022-12-14T07:15:20.122Z,61.19
2022-12-14T07:16:24.768Z,61.22
2022-12-14T07:17:26.428Z,61.60
2022-12-14T07:18:28.204Z,61.95
2022-12-14T07:19:29.620Z,61.83
2022-12-14T07:20:31.420Z,61.72
2022-12-14T07:21:34.178Z,62.24
2022-12-14T07:22:36.032Z,62.31
2022-12-14T07:23:39.166Z,61.85
2022-12-14T07:24:40.805Z,61.84
2022-12-14T07:25:42.126Z,61.76
2022-12-14T07:26:43.623Z,61.76
2022-12-14T07:27:45.417Z,61.58
2022-12-14T07:28:47.473Z,61.42
2022-12-14T07:29:48.909Z,61.40
2022-12-14T07:30:55.248Z,61.59
2022-12-14T07:31:57.145Z,61.44
2022-12-14T07:32:58.554Z,61.55
2022-12-14T07:34:00.267Z,61.12
2022-12-14T07:35:02.112Z,61.50
2022-12-14T07:36:08.209Z,61.00
2022-12-14T07:37:09.761Z,61.74
2022-12-14T07:38:11.219Z,61.43
2022-12-14T07:39:15.211Z,61.46
2022-12-14T07:40:17.049Z,61.03
2022-12-14T07:41:23.307Z,61.28
2022-12-14T07:42:24.990Z,61.41
2022-12-14T07:43:26.714Z,61.00
2022-12-14T07:44:28.414Z,61.23
2022-12-14T07:45:30.821Z,61.70
2022-12-14T07:46:32.747Z,61.14
2022-12-14T07:47:34.223Z,61.49
2022-12-14T07:48:36.407Z,62.00
2022-12-14T07:49:37.884Z,61.17
2022-12-14T07:50:39.496Z,61.60
2022-12-14T07:51:42.364Z,61.11
2022-12-14T07:52:43.782Z,61.06
2022-12-14T07:53:45.294Z,61.43
2022-12-14T07:54:46.712Z,61.02
2022-12-14T07:55:48.150Z,61.46
2022-12-14T07:56:51.224Z,61.67
2022-12-14T07:57:52.757Z,61.13
2022-12-14T07:58:59.127Z,61.26
2022-12-14T08:00:00.667Z,61.13
2022-12-14T08:01:08.888Z,60.55
2022-12-14T08:02:12.157Z,60.15
2022-12-14T08:03:13.666Z,60.68
2022-12-14T08:04:19.960Z,60.82
2022-12-14T08:05:21.525Z,61.00
2022-12-14T08:06:27.875Z,60.81
2022-12-14T08:07:31.385Z,60.48
2022-12-14T08:08:33.081Z,61.28
2022-12-14T08:09:34.524Z,60.84
2022-12-14T08:10:40.330Z,61.09
2022-12-14T08:11:42.482Z,60.71
2022-12-14T08:12:43.923Z,60.67
2022-12-14T08:13:45.427Z,60.64
2022-12-14T08:14:48.669Z,60.44
2022-12-14T08:15:50.678Z,61.18
2022-12-14T08:16:52.470Z,61.55
2022-12-14T08:17:53.930Z,61.08
2022-12-14T08:18:57.198Z,61.54
2022-12-14T08:19:58.673Z,61.82
2022-12-14T08:21:02.152Z,61.26
2022-12-14T08:22:03.929Z,61.03
2022-12-14T08:23:05.339Z,61.40
2022-12-14T08:24:07.476Z,61.77
2022-12-14T08:25:09.242Z,61.34
2022-12-14T08:26:10.703Z,61.53
2022-12-14T08:27:12.513Z,60.83
2022-12-14T08:28:13.991Z,61.05
2022-12-14T08:29:15.465Z,61.08
2022-12-14T08:30:17.120Z,61.44
2022-12-14T08:31:21.723Z,61.38
2022-12-14T08:32:23.186Z,61.17
2022-12-14T08:33:24.721Z,61.62
2022-12-14T08:34:26.202Z,61.50
2022-12-14T08:35:27.614Z,61.52
2022-12-14T08:36:31.376Z,61.83
2022-12-14T08:37:32.783Z,62.25
2022-12-14T08:38:34.414Z,62.05
2022-12-14T08:39:35.853Z,61.82
2022-12-14T08:40:38.163Z,61.16
2022-12-14T08:41:39.857Z,61.21
2022-12-14T08:42:41.306Z,60.70
2022-12-14T08:43:42.782Z,60.54
2022-12-14T08:44:44.184Z,60.53
2022-12-14T08:45:45.581Z,60.47
2022-12-14T08:46:48.045Z,61.11
2022-12-14T08:47:49.995Z,61.12
2022-12-14T08:48:53.571Z,61.24
2022-12-14T08:49:55.043Z,61.05
2022-12-14T08:51:02.739Z,61.77
2022-12-14T08:52:04.556Z,61.85
2022-12-14T08:53:05.967Z,62.18
2022-12-14T08:54:07.574Z,62.17
2022-12-14T08:55:09.062Z,61.98
2022-12-14T08:56:12.989Z,61.74
2022-12-14T08:57:14.434Z,61.49
2022-12-14T08:58:15.902Z,61.51
2022-12-14T08:59:43.895Z,61.73
2022-12-14T09:00:38.700Z,62.04
2022-12-14T09:01:40.611Z,61.53
2022-12-14T09:02:42.328Z,61.32
2022-12-14T09:03:44.850Z,61.10
2022-12-14T09:04:46.278Z,61.32
2022-12-14T09:05:47.989Z,61.05
2022-12-14T09:06:49.695Z,62.11
2022-12-14T09:07:51.113Z,62.47
2022-12-14T09:08:52.540Z,62.76
2022-12-14T09:09:54.039Z,61.68
2022-12-14T09:10:55.499Z,61.23
2022-12-14T09:11:57.261Z,61.11
2022-12-14T09:12:59.344Z,61.22
2022-12-14T09:14:00.787Z,61.34
2022-12-14T09:15:02.173Z,60.97
2022-12-14T09:16:13.694Z,60.78
2022-12-14T09:17:16.451Z,60.94
2022-12-14T09:18:17.843Z,61.13
2022-12-14T09:19:19.965Z,60.68
2022-12-14T09:20:21.520Z,60.99
2022-12-14T09:21:24.019Z,61.17
2022-12-14T09:22:25.635Z,61.73
2022-12-14T09:23:29.721Z,61.81
2022-12-14T09:24:31.336Z,61.33
2022-12-14T09:25:33.539Z,61.68
2022-12-14T09:26:35.365Z,62.31
2022-12-14T09:27:36.788Z,62.11
2022-12-14T09:28:40.005Z,62.89
2022-12-14T09:29:41.387Z,62.97
2022-12-14T09:30:46.213Z,62.62
2022-12-14T09:31:48.131Z,62.14
2022-12-14T09:32:50.821Z,62.15
2022-12-14T09:33:52.425Z,61.76
2022-12-14T09:34:53.893Z,62.10
2022-12-14T09:36:16.350Z,61.58
2022-12-14T09:37:17.831Z,62.07
2022-12-14T09:38:20.396Z,61.62
2022-12-14T09:39:21.849Z,60.54
2022-12-14T09:40:28.452Z,61.62
2022-12-14T09:41:36.342Z,62.20
2022-12-14T09:42:43.708Z,62.05
2022-12-14T09:44:21.515Z,61.88
2022-12-14T09:45:28.718Z,62.21
2022-12-14T09:46:40.383Z,60.63
2022-12-14T09:47:45.833Z,60.68
2022-12-14T09:48:49.152Z,60.92
2022-12-14T09:50:07.053Z,61.27
2022-12-14T09:51:17.863Z,62.04
2022-12-14T09:52:37.571Z,61.67
2022-12-14T09:53:42.057Z,62.12
2022-12-14T09:54:45.505Z,62.45
2022-12-14T09:55:55.559Z,62.61
2022-12-14T09:57:01.578Z,63.40
2022-12-14T09:58:16.765Z,63.66
2022-12-14T09:59:20.895Z,62.63
2022-12-14T10:00:22.715Z,62.96
2022-12-14T10:01:36.085Z,62.94
2022-12-14T10:02:52.898Z,63.19
2022-12-14T10:04:12.716Z,63.60
2022-12-14T10:05:39.108Z,64.06
2022-12-14T10:07:03.078Z,64.59
2022-12-14T10:08:09.262Z,64.64
2022-12-14T10:09:28.614Z,64.48
2022-12-14T10:10:48.419Z,64.82
2022-12-14T10:12:02.239Z,65.00
2022-12-14T10:13:22.540Z,65.39
2022-12-14T10:14:44.674Z,65.69
2022-12-14T10:15:46.041Z,65.88
2022-12-14T10:17:13.235Z,67.20
2022-12-14T10:18:59.627Z,67.52
2022-12-14T10:20:11.160Z,68.97
2022-12-14T10:21:17.371Z,69.22
2022-12-14T10:22:23.250Z,70.19
2022-12-14T10:23:26.923Z,70.27
2022-12-14T10:24:41.618Z,71.07
2022-12-14T10:25:46.545Z,71.88
2022-12-14T10:26:52.298Z,72.02
2022-12-14T10:28:32.025Z,72.06
2022-12-14T10:29:51.283Z,73.39
2022-12-14T10:30:57.481Z,73.87
2022-12-14T10:32:11.159Z,74.44
2022-12-14T10:33:13.631Z,74.63
2022-12-14T10:34:19.130Z,74.91
2022-12-14T10:35:32.766Z,74.84
2022-12-14T10:36:43.130Z,75.53
2022-12-14T10:38:18.687Z,75.19
2022-12-14T10:40:05.918Z,75.14
2022-12-14T10:41:28.034Z,75.52
2022-12-14T10:43:00.734Z,75.78
2022-12-14T10:44:29.499Z,74.99
2022-12-14T10:45:43.194Z,74.89
2022-12-14T10:47:30.222Z,74.24
2022-12-14T10:48:40.041Z,73.26
2022-12-14T10:49:55.344Z,73.38
2022-12-14T10:51:29.186Z,73.17
2022-12-14T10:52:41.431Z,74.02
2022-12-14T10:53:50.448Z,72.97
2022-12-14T10:54:56.960Z,73.27
2022-12-14T10:56:08.863Z,73.35
2022-12-14T10:57:17.564Z,73.36
2022-12-14T10:58:19.009Z,74.17
2022-12-14T10:59:36.729Z,74.40
2022-12-14T11:00:40.961Z,74.23
2022-12-14T11:01:43.569Z,73.53
2022-12-14T11:02:50.121Z,73.77
2022-12-14T11:03:52.366Z,74.12
2022-12-14T11:05:00.568Z,74.27
2022-12-14T11:06:14.442Z,73.51
2022-12-14T11:07:18.841Z,72.86
2022-12-14T11:08:38.815Z,72.94
2022-12-14T11:09:40.511Z,73.12
2022-12-14T11:10:41.978Z,72.73
2022-12-14T11:11:45.388Z,72.67
2022-12-14T11:13:01.460Z,72.70
2022-12-14T11:14:14.723Z,72.48
2022-12-14T11:15:36.304Z,72.74
2022-12-14T11:16:39.328Z,72.33
2022-12-14T11:17:44.094Z,72.82
2022-12-14T11:18:57.424Z,72.54
2022-12-14T11:20:19.297Z,72.86
2022-12-14T11:21:29.719Z,72.82
2022-12-14T11:22:54.090Z,72.49
2022-12-14T11:23:55.632Z,72.88
2022-12-14T11:24:57.068Z,73.05
2022-12-14T11:26:01.170Z,73.12
2022-12-14T11:27:06.026Z,72.75
2022-12-14T11:28:30.042Z,72.74
2022-12-14T11:29:36.838Z,72.16
2022-12-14T11:30:38.346Z,71.70
2022-12-14T11:31:45.195Z,72.22
2022-12-14T11:32:48.478Z,71.86
2022-12-14T11:33:53.060Z,72.30
2022-12-14T11:34:59.110Z,72.03
2022-12-14T11:36:01.004Z,72.89
2022-12-14T11:37:22.914Z,72.26
2022-12-14T11:38:30.280Z,72.70
2022-12-14T11:39:40.937Z,72.32
2022-12-14T11:40:42.460Z,72.02
2022-12-14T11:41:48.032Z,72.29
2022-12-14T11:42:51.630Z,72.12
2022-12-14T11:44:22.281Z,73.19
2022-12-14T11:45:31.441Z,73.35
2022-12-14T11:46:58.055Z,73.30
2022-12-14T11:48:14.913Z,73.88
2022-12-14T11:49:42.200Z,73.83
2022-12-14T11:50:45.838Z,73.46
2022-12-14T11:52:02.404Z,73.69
2022-12-14T11:53:10.948Z,73.70
2022-12-14T11:54:15.462Z,72.69
2022-12-14T11:55:26.844Z,72.84
2022-12-14T11:56:29.404Z,73.12
2022-12-14T11:57:34.274Z,73.65
2022-12-14T11:58:47.798Z,73.63
2022-12-14T11:59:58.871Z,73.65
2022-12-14T12:01:04.740Z,74.43
2022-12-14T12:02:20.727Z,74.21
2022-12-14T12:03:27.684Z,74.47
2022-12-14T12:04:29.684Z,74.62
2022-12-14T12:05:34.017Z,73.74
2022-12-14T12:06:36.054Z,73.57
2022-12-14T12:07:42.368Z,73.97
2022-12-14T12:08:44.703Z,73.60
2022-12-14T12:09:46.165Z,73.98
2022-12-14T12:10:51.045Z,74.04
2022-12-14T12:11:52.875Z,73.59
2022-12-14T12:12:59.594Z,73.82
2022-12-14T12:14:06.269Z,74.01
2022-12-14T12:15:17.463Z,73.77
2022-12-14T12:16:22.303Z,73.43
2022-12-14T12:17:52.602Z,73.63
2022-12-14T12:19:00.086Z,73.41
2022-12-14T12:20:01.742Z,73.13
2022-12-14T12:21:15.485Z,73.68
2022-12-14T12:22:18.894Z,72.97
2022-12-14T12:23:25.027Z,73.83
2022-12-14T12:24:38.790Z,73.48
2022-12-14T12:25:49.846Z,73.43
2022-12-14T12:26:57.817Z,73.83
2022-12-14T12:28:06.018Z,73.91
2022-12-14T12:29:29.064Z,73.74
2022-12-14T12:30:36.585Z,73.40
2022-12-14T12:31:43.617Z,73.53
2022-12-14T12:32:52.781Z,73.88
2022-12-14T12:34:12.228Z,74.51
2022-12-14T12:35:18.738Z,74.29
2022-12-14T12:36:24.115Z,74.05
2022-12-14T12:37:36.593Z,74.32
2022-12-14T12:39:02.368Z,74.15
2022-12-14T12:40:16.426Z,74.09
2022-12-14T12:41:30.958Z,73.91
2022-12-14T12:42:45.145Z,73.76
2022-12-14T12:43:54.313Z,74.02
2022-12-14T12:45:25.761Z,73.82
2022-12-14T12:46:53.440Z,73.61
2022-12-14T12:48:12.348Z,74.10
2022-12-14T12:49:15.096Z,74.21
2022-12-14T12:50:30.504Z,73.79
2022-12-14T12:51:39.296Z,74.12
2022-12-14T12:53:05.550Z,73.81
2022-12-14T12:54:14.493Z,74.06
2022-12-14T12:55:19.671Z,73.89
2022-12-14T12:56:27.012Z,74.09
2022-12-14T12:57:42.247Z,73.81
2022-12-14T12:58:52.104Z,73.93
2022-12-14T12:59:56.428Z,73.81
2022-12-14T13:01:02.188Z,74.13
2022-12-14T13:02:18.607Z,73.36
2022-12-14T13:03:25.705Z,73.78
2022-12-14T13:04:34.790Z,73.67
2022-12-14T13:05:48.413Z,73.70
2022-12-14T13:06:59.446Z,73.41
2022-12-14T13:08:23.008Z,73.55
2022-12-14T13:10:05.619Z,73.47
2022-12-14T13:11:26.071Z,73.14
2022-12-14T13:12:30.738Z,72.99
2022-12-14T13:13:34.583Z,73.51
2022-12-14T13:14:49.649Z,73.06
2022-12-14T13:15:53.433Z,73.55
2022-12-14T13:16:56.116Z,73.71
2022-12-14T13:18:33.882Z,73.03
2022-12-14T13:19:54.583Z,73.18
2022-12-14T13:20:57.434Z,72.93
2022-12-14T13:22:05.156Z,73.28
2022-12-14T13:23:43.111Z,73.67
2022-12-14T13:24:33.472Z,73.88
2022-12-14T13:25:59.822Z,73.88
2022-12-14T13:27:31.790Z,73.68
2022-12-14T13:29:02.185Z,73.52
2022-12-14T13:30:12.398Z,73.71
2022-12-14T13:31:37.653Z,73.56
2022-12-14T13:32:39.113Z,73.60
2022-12-14T13:33:59.166Z,74.01
2022-12-14T13:35:37.733Z,73.73
2022-12-14T13:37:00.262Z,74.01
2022-12-14T13:38:21.012Z,73.94
2022-12-14T13:39:59.057Z,74.31
2022-12-14T13:41:19.684Z,74.47
2022-12-14T13:42:41.139Z,74.55
2022-12-14T13:43:57.225Z,74.22
2022-12-14T13:45:01.723Z,74.23
2022-12-14T13:46:11.377Z,74.20
2022-12-14T13:47:20.442Z,73.77
2022-12-14T13:48:21.885Z,74.03
2022-12-14T13:49:24.309Z,74.01
2022-12-14T13:50:39.758Z,74.01
2022-12-14T13:51:50.040Z,74.08
2022-12-14T13:52:58.128Z,75.12
2022-12-14T13:54:02.912Z,74.54
2022-12-14T13:55:31.240Z,74.25
2022-12-14T13:56:37.896Z,74.38
2022-12-14T13:57:39.400Z,74.31
2022-12-14T13:58:43.497Z,73.94
2022-12-14T13:59:49.379Z,74.28
2022-12-14T14:00:56.046Z,73.74
2022-12-14T14:02:00.462Z,74.18
2022-12-14T14:03:02.407Z,73.91
2022-12-14T14:04:16.097Z,74.01
2022-12-14T14:05:21.455Z,73.83
2022-12-14T14:06:40.749Z,74.13
2022-12-14T14:07:51.934Z,74.70
2022-12-14T14:08:53.684Z,74.33
2022-12-14T14:09:55.096Z,74.18
2022-12-14T14:11:20.607Z,74.50
2022-12-14T14:12:24.163Z,74.78
2022-12-14T14:13:28.957Z,74.34
2022-12-14T14:14:33.454Z,74.83
2022-12-14T14:16:19.037Z,74.68
2022-12-14T14:17:25.322Z,74.80
2022-12-14T14:18:29.636Z,74.50
2022-12-14T14:19:39.480Z,74.45
2022-12-14T14:20:45.679Z,74.99
2022-12-14T14:22:25.554Z,74.52
2022-12-14T14:23:32.744Z,74.67
2022-12-14T14:24:56.231Z,74.44
2022-12-14T14:26:18.530Z,74.52
2022-12-14T14:27:22.385Z,74.82
2022-12-14T14:28:30.405Z,74.70
2022-12-14T14:29:33.208Z,74.72
2022-12-14T14:30:56.632Z,75.14
2022-12-14T14:32:01.464Z,75.28
2022-12-14T14:33:43.120Z,74.26
2022-12-14T14:34:43.197Z,74.61
2022-12-14T14:35:44.628Z,74.70
2022-12-14T14:36:51.901Z,74.77
2022-12-14T14:38:31.288Z,74.97